createdAt,value
2023-02-14T00:03:54.729Z,-2.90
2023-02-14T00:08:58.472Z,-2.90
2023-02-14T00:14:19.371Z,-2.90
2023-02-14T00:19:24.624Z,-2.90
2023-02-14T00:24:28.718Z,-3.00
2023-02-14T00:29:33.699Z,-3.10
2023-02-14T00:34:38.645Z,-3.00
2023-02-14T00:39:41.988Z,-2.90
2023-02-14T00:44:46.212Z,-2.70
2023-02-14T00:49:50.866Z,-2.80
2023-02-14T00:54:54.092Z,-2.80
2023-02-14T00:59:57.400Z,-2.90
2023-02-14T01:05:02.067Z,-2.90
2023-02-14T01:10:05.695Z,-3.00
2023-02-14T01:15:09.802Z,-3.10
2023-02-14T01:20:16.580Z,-3.30
2023-02-14T01:25:20.154Z,-3.30
2023-02-14T01:30:23.896Z,-3.20
2023-02-14T01:35:28.664Z,-3.20
2023-02-14T01:40:32.856Z,-3.30
2023-02-14T01:45:36.308Z,-3.40
2023-02-14T01:50:43.699Z,-3.50
2023-02-14T01:55:50.675Z,-3.60
2023-02-14T02:01:01.065Z,-3.70
2023-02-14T02:06:11.953Z,-3.80
2023-02-14T02:11:15.206Z,-3.80
2023-02-14T02:16:44.860Z,-3.80
2023-02-14T02:22:12.048Z,-3.80
2023-02-14T02:27:35.748Z,-3.80
2023-02-14T02:33:27.563Z,-3.90
2023-02-14T02:38:49.642Z,-3.90
2023-02-14T02:43:58.796Z,-3.90
2023-02-14T02:49:09.926Z,-4.00
2023-02-14T02:54:20.956Z,-3.90
2023-02-14T02:59:28.281Z,-3.90
2023-02-14T03:04:51.217Z,-4.00
2023-02-14T03:09:58.709Z,-4.00
2023-02-14T03:15:12.529Z,-4.00
2023-02-14T03:20:23.685Z,-4.00
2023-02-14T03:25:40.861Z,-4.00
2023-02-14T03:30:50.270Z,-4.10
2023-02-14T03:36:02.094Z,-4.10
2023-02-14T03:41:10.444Z,-4.10
2023-02-14T03:46:19.129Z,-4.10
2023-02-14T03:51:24.427Z,-4.20
2023-02-14T03:56:36.192Z,-4.20
2023-02-14T04:01:48.941Z,-4.30
2023-02-14T04:06:52.387Z,-4.30
2023-02-14T04:11:57.282Z,-4.40
2023-02-14T04:17:18.134Z,-4.40
2023-02-14T04:22:21.779Z,-4.50
2023-02-14T04:27:26.515Z,-4.60
2023-02-14T04:32:29.729Z,-4.70
2023-02-14T04:37:33.067Z,-4.60
2023-02-14T04:42:37.637Z,-4.60
2023-02-14T04:47:40.880Z,-4.60
2023-02-14T04:52:44.160Z,-4.60
2023-02-14T04:57:48.905Z,-4.70
2023-02-14T05:02:52.271Z,-4.70
2023-02-14T05:07:55.508Z,-4.70
2023-02-14T05:13:00.132Z,-4.80
2023-02-14T05:18:03.286Z,-4.70
2023-02-14T05:23:07.263Z,-4.60
2023-02-14T05:28:11.949Z,-4.60
2023-02-14T05:33:15.290Z,-4.60
2023-02-14T05:38:18.934Z,-4.70
2023-02-14T05:43:24.621Z,-4.70
2023-02-14T05:48:28.018Z,-4.80
2023-02-14T05:53:31.739Z,-4.90
2023-02-14T05:58:36.446Z,-4.80
2023-02-14T06:03:39.764Z,-4.70
2023-02-14T06:08:43.202Z,-4.70
2023-02-14T06:13:47.920Z,-4.70
2023-02-14T06:18:51.259Z,-4.70
2023-02-14T06:23:54.616Z,-4.80
2023-02-14T06:29:00.379Z,-4.90
2023-02-14T06:34:03.539Z,-5.00
2023-02-14T06:39:10.654Z,-4.90
2023-02-14T06:44:15.304Z,-4.90
2023-02-14T06:49:18.653Z,-4.80
2023-02-14T06:54:21.859Z,-4.80
2023-02-14T06:59:26.439Z,-4.70
2023-02-14T07:04:29.856Z,-4.70
2023-02-14T07:09:33.171Z,-4.50
2023-02-14T07:14:37.818Z,-3.50
2023-02-14T07:19:41.033Z,-2.90
2023-02-14T07:24:44.316Z,-3.10
2023-02-14T07:29:49.062Z,-3.10
2023-02-14T07:34:52.427Z,-3.00
2023-02-14T07:39:55.803Z,-2.90
2023-02-14T07:45:03.138Z,-2.80
2023-02-14T07:50:11.472Z,-2.80
2023-02-14T07:55:19.945Z,-2.70
2023-02-14T08:00:25.227Z,-2.70
2023-02-14T08:05:28.505Z,-2.70
2023-02-14T08:10:31.747Z,-2.50
2023-02-14T08:15:53.960Z,-2.30
2023-02-14T08:20:57.736Z,-2.10
2023-02-14T08:26:01.542Z,-2.00
2023-02-14T08:31:06.706Z,-1.80
2023-02-14T08:36:10.208Z,-1.60
2023-02-14T08:41:13.687Z,-1.40
2023-02-14T08:46:18.363Z,-1.00
2023-02-14T08:51:22.843Z,1.00
2023-02-14T08:56:26.070Z,3.10
2023-02-14T09:01:30.798Z,5.20
2023-02-14T09:06:34.369Z,6.00
2023-02-14T09:11:37.661Z,6.40
2023-02-14T09:16:42.262Z,7.40
2023-02-14T09:21:45.588Z,8.10
2023-02-14T09:26:48.753Z,8.30
2023-02-14T09:31:56.250Z,8.80
2023-02-14T09:36:59.562Z,9.60
2023-02-14T09:42:17.339Z,10.10
2023-02-14T09:47:36.544Z,10.70
2023-02-14T09:52:39.827Z,10.00
2023-02-14T09:57:56.582Z,8.40
2023-02-14T10:03:13.539Z,8.50
2023-02-14T10:08:31.704Z,8.50
2023-02-14T10:13:40.340Z,8.10
2023-02-14T10:18:51.161Z,7.50
2023-02-14T10:24:01.652Z,5.80
2023-02-14T10:29:07.374Z,5.90
2023-02-14T10:34:17.935Z,5.80
2023-02-14T10:39:54.132Z,5.70
2023-02-14T10:45:12.636Z,5.80
2023-02-14T10:50:23.114Z,5.90
2023-02-14T10:55:33.680Z,6.00
2023-02-14T11:00:40.186Z,6.30
2023-02-14T11:05:47.573Z,6.30
2023-02-14T11:10:50.880Z,6.50
2023-02-14T11:15:54.308Z,6.90
2023-02-14T11:21:11.323Z,7.10
2023-02-14T11:26:24.062Z,7.10
2023-02-14T11:31:32.981Z,7.50
2023-02-14T11:36:43.103Z,7.70
2023-02-14T11:41:51.483Z,7.80
2023-02-14T11:46:56.258Z,7.90
2023-02-14T11:52:10.286Z,8.20
2023-02-14T11:57:17.147Z,8.20
2023-02-14T12:02:29.052Z,8.30
2023-02-14T12:07:36.872Z,8.50
2023-02-14T12:12:50.668Z,8.80
2023-02-14T12:18:00.104Z,8.80
2023-02-14T12:23:12.267Z,9.00
2023-02-14T12:28:20.634Z,9.20
2023-02-14T12:33:26.094Z,9.50
2023-02-14T12:38:42.903Z,9.70
2023-02-14T12:43:50.736Z,9.70
2023-02-14T12:49:08.173Z,9.70
2023-02-14T12:54:30.056Z,9.80
2023-02-14T12:59:44.870Z,9.90
2023-02-14T13:04:58.414Z,10.20
2023-02-14T13:10:12.492Z,10.40
2023-02-14T13:15:23.672Z,10.50
2023-02-14T13:20:42.588Z,10.50
2023-02-14T13:25:53.213Z,10.50
2023-02-14T13:30:59.897Z,10.40
2023-02-14T13:36:11.362Z,10.70
2023-02-14T13:41:17.557Z,10.60
2023-02-14T13:46:23.740Z,10.80
2023-02-14T13:51:46.310Z,10.80
2023-02-14T13:56:51.787Z,10.80
2023-02-14T14:01:55.207Z,10.80
2023-02-14T14:07:22.804Z,10.70
2023-02-14T14:12:41.664Z,10.90
2023-02-14T14:17:50.346Z,10.90
2023-02-14T14:22:56.576Z,10.90
2023-02-14T14:28:01.909Z,10.90
2023-02-14T14:33:24.874Z,10.90
2023-02-14T14:38:29.509Z,10.90
2023-02-14T14:43:37.307Z,10.90
2023-02-14T14:48:43.561Z,10.90
2023-02-14T14:53:49.903Z,10.80
2023-02-14T14:58:55.396Z,10.80
2023-02-14T15:04:12.237Z,10.70
2023-02-14T15:09:22.357Z,10.70
2023-02-14T15:14:30.250Z,10.50
2023-02-14T15:19:38.724Z,10.40
2023-02-14T15:24:42.048Z,10.30
2023-02-14T15:29:56.778Z,10.20
2023-02-14T15:35:03.183Z,10.00
2023-02-14T15:40:09.006Z,9.80
2023-02-14T15:45:18.462Z,9.80
2023-02-14T15:50:26.500Z,9.50
2023-02-14T15:55:31.413Z,9.30
2023-02-14T16:00:36.957Z,9.10
2023-02-14T16:05:46.926Z,8.90
2023-02-14T16:11:03.686Z,8.70
2023-02-14T16:16:10.120Z,8.40
2023-02-14T16:21:19.287Z,8.30
2023-02-14T16:26:22.877Z,8.10
2023-02-14T16:31:27.875Z,7.90
2023-02-14T16:36:32.958Z,7.70
2023-02-14T16:41:36.564Z,7.50
2023-02-14T16:46:43.035Z,7.20
2023-02-14T16:51:48.750Z,6.80
2023-02-14T16:56:55.479Z,6.40
2023-02-14T17:02:00.588Z,6.10
2023-02-14T17:07:07.775Z,5.70
2023-02-14T17:12:22.318Z,5.50
2023-02-14T17:17:27.791Z,5.20
2023-02-14T17:22:32.603Z,5.00
2023-02-14T17:27:38.890Z,4.60
2023-02-14T17:32:49.836Z,4.30
2023-02-14T17:37:53.106Z,3.90
2023-02-14T17:42:59.732Z,3.50
2023-02-14T17:48:04.429Z,3.20
2023-02-14T17:53:09.516Z,3.00
2023-02-14T17:58:13.887Z,3.00
2023-02-14T18:03:23.692Z,2.90
2023-02-14T18:08:29.766Z,2.90
2023-02-14T18:13:35.503Z,2.80
2023-02-14T18:19:34.561Z,2.80
2023-02-14T18:24:38.135Z,2.80
2023-02-14T18:29:41.540Z,2.70
2023-02-14T18:34:46.302Z,2.50
2023-02-14T18:39:50.611Z,2.40
2023-02-14T18:44:57.758Z,2.40
2023-02-14T18:50:02.633Z,2.40
2023-02-14T18:55:07.904Z,2.40
2023-02-14T19:00:12.733Z,2.10
2023-02-14T19:05:17.454Z,2.00
2023-02-14T19:10:20.986Z,1.90
2023-02-14T19:15:24.385Z,1.70
2023-02-14T19:20:32.751Z,1.60
2023-02-14T19:25:39.815Z,1.50
2023-02-14T19:30:43.124Z,1.60
2023-02-14T19:36:00.458Z,1.70
2023-02-14T19:41:03.772Z,2.00
2023-02-14T19:46:07.580Z,2.10
2023-02-14T19:51:17.661Z,2.00
2023-02-14T19:56:21.683Z,1.90
2023-02-14T20:01:27.930Z,1.90
2023-02-14T20:06:35.521Z,1.80
2023-02-14T20:11:49.846Z,1.60
2023-02-14T20:16:55.151Z,1.50
2023-02-14T20:22:00.639Z,1.10
2023-02-14T20:27:08.200Z,0.90
2023-02-14T20:32:12.318Z,0.70
2023-02-14T20:37:17.017Z,0.30
2023-02-14T20:42:20.484Z,0.00
2023-02-14T20:47:23.960Z,-0.20
2023-02-14T20:52:28.735Z,-0.20
2023-02-14T20:57:32.042Z,-0.40
2023-02-14T21:02:35.370Z,-0.50
2023-02-14T21:07:40.077Z,-0.60
2023-02-14T21:12:44.315Z,-0.60
2023-02-14T21:17:47.689Z,-0.70
2023-02-14T21:22:52.412Z,-0.80
2023-02-14T21:27:55.724Z,-1.00
2023-02-14T21:32:58.982Z,-1.10
2023-02-14T21:38:03.632Z,-1.00
2023-02-14T21:43:06.827Z,-1.10
2023-02-14T21:48:27.783Z,-1.10
2023-02-14T21:53:32.663Z,-1.20
2023-02-14T21:58:35.991Z,-1.20
2023-02-14T22:03:39.884Z,-1.10
2023-02-14T22:08:44.841Z,-1.20
2023-02-14T22:13:48.160Z,-1.20
2023-02-14T22:18:52.061Z,-1.30
2023-02-14T22:23:57.614Z,-1.40
2023-02-14T22:29:03.187Z,-1.50
2023-02-14T22:34:07.395Z,-1.60
2023-02-14T22:39:14.558Z,-1.50
2023-02-14T22:44:18.933Z,-1.60
2023-02-14T22:49:22.249Z,-1.60
2023-02-14T22:54:27.066Z,-1.50
2023-02-14T22:59:32.230Z,-1.50
2023-02-14T23:04:36.570Z,-1.60
2023-02-14T23:09:41.244Z,-1.80
2023-02-14T23:15:02.005Z,-1.90
2023-02-14T23:20:23.201Z,-1.90
2023-02-14T23:25:28.164Z,-1.90
2023-02-14T23:30:31.426Z,-1.90
2023-02-14T23:35:37.407Z,-1.80
2023-02-14T23:40:55.940Z,-1.70
2023-02-14T23:46:01.448Z,-1.80
2023-02-14T23:51:05.140Z,-1.90
2023-02-14T23:56:09.916Z,-2.10
